• Join FlightAware (Why Join?)
  • Login
  • US Flag 
07:24AM EDT


 

Airport Tracker/Info


-or-


 

Live Flight TrackerFlight Track Log ✈ N1250V ✈ 29-Sep-2013 ✈ KLUK - KOMA

Flight Track Log - Related Links

Times and Time Zones

All times are in EDT time to prevent confusion due to time zone crossing. See the N1250V flight status page for this flight to view local times or setup timezone preferences in your user account.

Time Position Orientation Groundspeed Altitude Reporting Facility
EDT Latitude Longitude Course Direction KTS MPH feet Rate Location/Type
08:18AM 39.0833 -84.4167 360° North 126 145 1,100  Level Cincinnati TRACON
08:18AM 39.0833 -84.4167 38° Northeast 131 151 1,200 600 Climbing Cincinnati TRACON
08:19AM 39.0500 -84.4333 201° Southwest 114 131 1,800 660 Climbing Cincinnati TRACON
08:20AM 39.0500 -84.3833 90° East 164 189 2,600 540 Climbing Cincinnati TRACON
08:21AM 39.0456 -84.3592 103° East 142 163 2,800 180 Climbing Indianapolis Center
08:22AM 39.0528 -84.2872 83° East 167 192 3,000  Climbing Indianapolis Center
08:23AM 39.0917 -84.2747 14° North 162 186 2,900 -60 Descending Indianapolis Center
08:24AM 39.1272 -84.3086 324° Northwest 159 183 2,900  Level Indianapolis Center
08:25AM 39.1603 -84.3439 320° Northwest 158 182 3,000  Climbing Indianapolis Center
08:26AM 39.1953 -84.3792 322° Northwest 157 181 2,900  Descending Indianapolis Center
08:27AM 39.2306 -84.4103 326° Northwest 157 181 3,000  Climbing Indianapolis Center
08:28AM 39.2639 -84.4394 326° Northwest 152 175 2,900 -120 Descending Indianapolis Center
08:30AM 39.2913 -84.5572 270° West  Level Estimated
08:37AM 39.4742 -85.3570 275° West  Level Estimated
08:38AM 39.4285 -85.4605 240° Southwest  Level FlightAware Approximate
08:39AM 39.3827 -85.5640 240° Southwest  Level FlightAware Approximate
08:40AM 39.4096 -85.6780 303° West  Level Estimated
08:41AM 39.4364 -85.7920 319° Northwest  Level Estimated
08:42AM 39.4586 -85.9078 284° West  Level FlightAware Approximate
08:43AM 39.5005 -85.9924 311° West  Level FlightAware Approximate
08:44AM 39.5694 -86.0708 311° West  Level FlightAware Approximate
08:45AM 39.6359 -86.1526 322° Northwest  Level FlightAware Approximate
08:46AM 39.7019 -86.2358 314° West  Level FlightAware Approximate
08:47AM 39.7662 -86.3215 314° West  Level FlightAware Approximate
08:48AM 39.8080 -86.4225 281° West  Level FlightAware Approximate
08:49AM 39.8248 -86.5404 281° West  Level FlightAware Approximate
08:50AM 39.8415 -86.6584 280° West  Level FlightAware Approximate
08:51AM 39.8581 -86.7764 280° West  Level FlightAware Approximate
08:52AM 39.8746 -86.8944 280° West  Level FlightAware Approximate
08:53AM 39.8910 -87.0125 280° West  Level FlightAware Approximate
08:54AM 39.9072 -87.1307 280° West  Level FlightAware Approximate
08:55AM 39.9238 -87.2488 281° West  Level FlightAware Approximate
08:56AM 39.9408 -87.3669 281° West  Level FlightAware Approximate
08:57AM 39.9578 -87.4849 281° West  Level FlightAware Approximate
08:58AM 39.9746 -87.6031 281° West  Level FlightAware Approximate
08:59AM 39.9913 -87.7213 280° West  Level FlightAware Approximate
09:00AM 40.0052 -87.8400 277° West  Level FlightAware Approximate
09:01AM 40.0162 -87.9594 277° West  Level FlightAware Approximate
09:02AM 40.0270 -88.0789 277° West  Level FlightAware Approximate
09:03AM 40.0398 -88.1979 280° West  Level FlightAware Approximate
09:04AM 40.0556 -88.3165 280° West  Level FlightAware Approximate
09:05AM 40.0710 -88.4351 279° West  Level FlightAware Approximate
09:06AM 40.0854 -88.5540 279° West  Level FlightAware Approximate
09:07AM 40.0998 -88.6729 279° West  Level FlightAware Approximate
09:08AM 40.1141 -88.7919 279° West  Level FlightAware Approximate
09:09AM 40.1282 -88.9109 279° West  Level FlightAware Approximate
09:10AM 40.1422 -89.0299 279° West  Level FlightAware Approximate
09:11AM 40.1560 -89.1490 279° West  Level FlightAware Approximate
09:12AM 40.1698 -89.2682 279° West  Level FlightAware Approximate
09:13AM 40.1834 -89.3874 279° West  Level FlightAware Approximate
09:14AM 40.1969 -89.5067 278° West  Level FlightAware Approximate
09:15AM 40.2103 -89.6260 278° West  Level FlightAware Approximate
09:16AM 40.2235 -89.7453 278° West  Level FlightAware Approximate
09:17AM 40.2365 -89.8648 278° West  Level FlightAware Approximate
09:18AM 40.2493 -89.9842 278° West  Level FlightAware Approximate
09:19AM 40.2621 -90.1037 278° West  Level FlightAware Approximate
09:20AM 40.2747 -90.2233 278° West  Level FlightAware Approximate
09:21AM 40.2872 -90.3429 278° West  Level FlightAware Approximate
09:22AM 40.2996 -90.4625 278° West  Level FlightAware Approximate
09:23AM 40.3102 -90.5825 277° West  Level FlightAware Approximate
09:24AM 40.3207 -90.7025 277° West  Level FlightAware Approximate
09:25AM 40.3310 -90.8226 276° West  Level FlightAware Approximate
09:26AM 40.3437 -90.9422 278° West  Level FlightAware Approximate
09:27AM 40.3569 -91.0618 278° West  Level FlightAware Approximate
09:28AM 40.3694 -91.1815 276° West  Level FlightAware Approximate
09:29AM 40.3797 -91.3017 276° West  Level FlightAware Approximate
09:30AM 40.3899 -91.4219 276° West  Level FlightAware Approximate
09:31AM 40.3999 -91.5421 276° West  Level FlightAware Approximate
09:32AM 40.4098 -91.6623 276° West  Level FlightAware Approximate
09:33AM 40.4196 -91.7826 276° West  Level FlightAware Approximate
09:34AM 40.4293 -91.9029 276° West  Level FlightAware Approximate
09:35AM 40.4388 -92.0232 276° West  Level FlightAware Approximate
09:36AM 40.4482 -92.1436 276° West  Level FlightAware Approximate
09:37AM 40.4575 -92.2640 276° West  Level FlightAware Approximate
09:38AM 40.4667 -92.3845 276° West  Level FlightAware Approximate
09:39AM 40.4757 -92.5050 276° West  Level FlightAware Approximate
09:40AM 40.4846 -92.6255 276° West  Level FlightAware Approximate
09:41AM 40.4934 -92.7460 276° West  Level FlightAware Approximate
09:42AM 40.5021 -92.8666 275° West  Level FlightAware Approximate
09:43AM 40.5107 -92.9872 275° West  Level FlightAware Approximate
09:44AM 40.5191 -93.1078 275° West  Level FlightAware Approximate
09:45AM 40.5274 -93.2285 275° West  Level FlightAware Approximate
09:46AM 40.5411 -93.3477 288° West  Level FlightAware Approximate
09:47AM 40.5500 -93.4670 270° West  Level FlightAware Approximate
09:48AM 40.5690 -93.5846 275° West  Level FlightAware Approximate
09:49AM 40.5771 -93.7053 275° West  Level FlightAware Approximate
09:50AM 40.5833 -93.8262 270° West  Level FlightAware Approximate
09:51AM 40.5833 -93.9475 270° West  Level FlightAware Approximate
09:52AM 40.6001 -94.0664 282° West  Level FlightAware Approximate
09:53AM 40.6198 -94.1849 282° West  Level FlightAware Approximate
09:54AM 40.6423 -94.3024 288° West  Level FlightAware Approximate
09:55AM 40.6657 -94.4197 284° West  Level FlightAware Approximate
09:56AM 40.6875 -94.5377 285° West  Level FlightAware Approximate
09:57AM 40.7071 -94.6563 279° West  Level FlightAware Approximate
09:58AM 40.7221 -94.7762 279° West  Level FlightAware Approximate
09:59AM 40.7379 -94.8959 282° West  Level FlightAware Approximate
10:00AM 40.7562 -95.0150 282° West  Level FlightAware Approximate
10:01AM 40.7980 -95.1147 323° Northwest  Level FlightAware Approximate
10:02AM 40.8479 -95.2130 308° West  Level FlightAware Approximate
10:03AM 40.9052 -95.3083 310° West  Level FlightAware Approximate
10:04AM 40.9639 -95.4022 310° West  Level FlightAware Approximate
10:05AM 41.0282 -95.4893 317° Northwest  Level FlightAware Approximate
10:06AM 41.0887 -95.5810 309° West  Level FlightAware Approximate
10:07AM 41.1460 -95.6767 309° West  Level FlightAware Approximate
10:08AM 41.2125 -95.7610 315° West  Level FlightAware Approximate
10:09AM 41.2714 -95.8548 323° Northwest  Level FlightAware Approximate
10:10AM 41.3000 -95.8833 323° Northwest  Level FlightAware Approximate
10:11AM 41.3032 -95.8941 323° Northwest  Level Estimated
10:12AM 41.3032 -95.8941 323° Northwest  Level Estimated
10:13AM 41.3032 -95.8941 323° Northwest  Level Estimated
10:14AM 41.3032 -95.8941 323° Northwest  Level Estimated
10:15AM 41.3032 -95.8941 323° Northwest  Level Estimated
10:16AM 41.3032 -95.8941 323° Northwest  Level Estimated
10:17AM 41.3032 -95.8941 323° Northwest  Level Estimated
10:18AM 41.3032 -95.8941 323° Northwest  Level Estimated
10:19AM 41.3032 -95.8941 323° Northwest  Level Estimated
10:20AM 41.3032 -95.8941 323° Northwest  Level Estimated
10:21AM 41.3032 -95.8941 323° Northwest  Level Estimated
10:22AM 41.3032 -95.8941 323° Northwest  Level Estimated
10:23AM 41.3032 -95.8941 323° Northwest  Level Estimated
10:24AM 41.3032 -95.8941 323° Northwest  Level Estimated
10:25AM 41.3032 -95.8941 323° Northwest  Level Estimated
10:26AM 41.3032 -95.8941 323° Northwest  Level Estimated
10:27AM 41.3032 -95.8941 323° Northwest  Level Estimated
10:28AM 41.3032 -95.8941 323° Northwest  Level Estimated
10:29AM 41.3032 -95.8941 323° Northwest  Level Estimated
10:30AM 41.3032 -95.8941 323° Northwest  Level Estimated
10:31AM 41.3032 -95.8941 323° Northwest  Level Estimated
10:32AM 41.3032 -95.8941 323° Northwest  Level Estimated
10:33AM 41.3032 -95.8941 323° Northwest  Level Estimated
10:34AM 41.3032 -95.8941 323° Northwest  Level Estimated
10:35AM 41.3032 -95.8941 323° Northwest  Level Estimated
10:36AM 41.3032 -95.8941 323° Northwest  Level Estimated